Stations météo

réclame
Mon MeteoGroup
Blackpool/Squires Gate, Grande-Bretagne (3318): Température de l'air & dewpoint: 19.01.2020 03:00:00 - 25.01.2020 03:00:00 (GMT)Blackpool/Squires Gate, Grande-Bretagne (3318): Vitesse du vent: 19.01.2020 03:00:00 - 25.01.2020 03:00:00 (GMT)Blackpool/Squires Gate, Grande-Bretagne (3318): Direction du vent: 19.01.2020 03:00:00 - 25.01.2020 03:00:00 (GMT)Blackpool/Squires Gate, Grande-Bretagne (3318): Quantités de précipitations: 19.01.2020 03:00:00 - 25.01.2020 03:00:00 (GMT)
Date & Time tt [°C] td [°C] ff [km/h] ff [knt] dd rr [mm]
25.01.2020 03:00:00 6,4 6,2 13 7 SW 0,2
25.01.2020 02:00:00 6,4 6,2 9 5 SW 0,0
25.01.2020 01:00:00 6,4 6,2 11 6 SW 0,0
25.01.2020 00:00:00 6,4 6,2 9 5 SW 0,0
24.01.2020 23:00:00 6,4 6,1 9 5 SW 0,2
24.01.2020 22:00:00 6,5 6,0 11 6 W 0,0
24.01.2020 21:00:00 6,6 6,0 5 3 W 0,0
24.01.2020 20:00:00 6,6 6,2 8 4 SW 0,0
24.01.2020 19:00:00 6,5 6,2 8 4 WSW 0,0
24.01.2020 18:00:00 6,5 6,2 8 4 WSW 0,2
24.01.2020 17:00:00 6,7 6,1 8 4 SW 0,0
24.01.2020 16:00:00 7,0 6,5 8 4 WSW 0,0
24.01.2020 15:00:00 7,3 6,5 11 6 W 0,0
24.01.2020 14:00:00 7,3 6,1 15 8 WNW 0,0
24.01.2020 13:00:00 7,3 6,2 15 8 WNW 0,0
24.01.2020 12:00:00 7,3 6,2 11 6 WNW 0,0
24.01.2020 11:00:00 7,1 6,5 9 5 W 0,0
24.01.2020 10:00:00 7,1 6,3 13 7 W 0,0
24.01.2020 09:00:00 7,2 6,6 18 10 W 0,0
24.01.2020 08:00:00 6,9 6,7 11 6 WNW 0,0
24.01.2020 07:00:00 7,0 6,7 13 7 W 0,2
24.01.2020 06:00:00 7,0 6,8 15 8 WNW 0,0
24.01.2020 05:00:00 6,9 6,7 18 10 W 0,0
24.01.2020 04:00:00 6,9 6,6 16 9 W 0,0
24.01.2020 03:00:00 6,9 6,7 16 9 W 0,0
24.01.2020 02:00:00 6,9 6,7 15 8 W 0,0
24.01.2020 01:00:00 6,9 6,7 13 7 W 0,0
24.01.2020 00:00:00 6,9 6,7 13 7 W 0,0
23.01.2020 23:00:00 6,7 6,6 11 6 W 0,0
23.01.2020 22:00:00 6,3 6,2 9 5 WSW 0,0
23.01.2020 21:00:00 6,1 5,9 9 5 WSW 0,0
23.01.2020 20:00:00 6,0 5,9 9 5 WNW 0,0
23.01.2020 19:00:00 6,0 5,8 8 4 WNW 0,0
23.01.2020 18:00:00 5,8 5,5 11 6 W 0,0
23.01.2020 17:00:00 6,3 5,9 9 5 W 0,0
23.01.2020 16:00:00 6,7 6,3 15 8 NW 0,0
23.01.2020 15:00:00 7,4 6,9 9 5 WSW 0,0
23.01.2020 14:00:00 7,9 7,6 9 5 WSW 0,0
23.01.2020 13:00:00 8,5 8,2 9 5 SSW 0,0
23.01.2020 12:00:00 8,5 8,4 8 4 S 0,0
23.01.2020 11:00:00 8,2 8,1 5 3 S 0,0
23.01.2020 10:00:00 7,5 7,4 2 1 SSW 0,0
23.01.2020 09:00:00 7,1 7,0 5 3 S 0,0
23.01.2020 08:00:00 6,9 6,8 8 4 S 0,0
23.01.2020 07:00:00 6,6 6,5 2 1 S 0,2
23.01.2020 06:00:00 6,7 6,6 4 2 SSW 0,0
23.01.2020 05:00:00 6,7 6,6 5 3 W 0,0
23.01.2020 04:00:00 6,6 6,4 8 4 WSW 0,2
23.01.2020 03:00:00 6,6 6,5 11 6 WSW 0,2
23.01.2020 02:00:00 6,5 6,4 8 4 SW 0,0
23.01.2020 01:00:00 6,7 6,5 11 6 SW 0,0
23.01.2020 00:00:00 6,6 6,5 5 3 SSW 0,0
22.01.2020 23:00:00 6,5 6,4 4 2 SSW 0,0
22.01.2020 22:00:00 6,3 6,2 4 2 SSW 0,0
22.01.2020 21:00:00 6,2 6,1 4 2 WSW 0,0
22.01.2020 20:00:00 6,5 6,3 4 2 W 0,0
22.01.2020 19:00:00 6,6 6,4 4 2 W 0,0
22.01.2020 18:00:00 6,7 6,6 4 2 W 0,0
22.01.2020 17:00:00 7,2 7,1 5 3 NNW 0,0
22.01.2020 16:00:00 7,1 7,0 9 5 WNW 0,0
22.01.2020 15:00:00 7,9 7,7 5 3 NNE 0,0
22.01.2020 14:00:00 7,7 7,5 11 6 N 0,0
22.01.2020 13:00:00 7,8 7,7 15 8 N 0,0
22.01.2020 12:00:00 7,8 7,6 15 8 N 0,0
22.01.2020 11:00:00 - - - - - -
22.01.2020 10:00:00 7,9 7,6 8 4 N 0,0
22.01.2020 09:00:00 7,5 7,2 8 4 WNW 0,0
22.01.2020 08:00:00 7,4 7,1 2 1 W 0,0
22.01.2020 07:00:00 7,5 7,2 9 5 NW 0,0
22.01.2020 06:00:00 7,6 7,3 8 4 NW 0,2
22.01.2020 05:00:00 7,5 7,2 11 6 WNW 0,0
22.01.2020 04:00:00 7,1 6,7 8 4 W 0,0
22.01.2020 03:00:00 7,3 6,9 5 3 WSW 0,0
22.01.2020 02:00:00 7,7 7,3 8 4 WNW 0,0
22.01.2020 01:00:00 7,5 7,1 8 4 WNW 0,0
22.01.2020 00:00:00 7,2 6,8 11 6 W 0,0
21.01.2020 23:00:00 7,3 6,9 9 5 W 0,0
21.01.2020 22:00:00 7,2 6,8 11 6 WSW 0,0
21.01.2020 21:00:00 7,5 7,1 13 7 WSW 0,0
21.01.2020 20:00:00 7,3 6,9 13 7 WNW 0,0
21.01.2020 19:00:00 7,5 7,1 11 6 W 0,0
21.01.2020 18:00:00 7,1 6,7 11 6 WNW 0,0
21.01.2020 17:00:00 7,1 6,7 13 7 W 0,0
21.01.2020 16:00:00 7,1 6,7 11 6 W 0,0
21.01.2020 15:00:00 7,3 6,8 9 5 W 0,0
21.01.2020 14:00:00 7,5 7,0 11 6 W 0,0
21.01.2020 13:00:00 7,5 6,9 8 4 WNW 0,0
21.01.2020 12:00:00 7,5 6,6 9 5 WNW 0,0
21.01.2020 11:00:00 7,6 6,5 8 4 WNW 0,0
21.01.2020 10:00:00 7,5 6,4 11 6 NW 0,0
21.01.2020 09:00:00 6,6 5,5 9 5 NW 0,0
21.01.2020 08:00:00 6,8 5,1 13 7 WNW 0,0
21.01.2020 07:00:00 7,4 4,8 13 7 NW 0,0
21.01.2020 06:00:00 7,5 3,7 11 6 WNW 0,0
21.01.2020 05:00:00 7,5 4,1 13 7 WNW 0,0
21.01.2020 04:00:00 7,5 4,2 11 6 WNW 0,0
21.01.2020 03:00:00 7,5 4,2 15 8 NW 0,0
21.01.2020 02:00:00 7,6 3,9 13 7 WNW 0,0
21.01.2020 01:00:00 7,2 4,9 15 8 WNW 0,0
21.01.2020 00:00:00 7,1 5,0 13 7 WNW 0,0
20.01.2020 23:00:00 7,1 4,9 15 8 WNW 0,0
20.01.2020 22:00:00 6,2 4,4 18 10 W 0,0
20.01.2020 21:00:00 7,2 4,1 22 12 WNW 0,0
20.01.2020 20:00:00 7,3 4,2 21 11 WNW 0,0
20.01.2020 19:00:00 6,8 5,1 18 10 W 0,0
20.01.2020 18:00:00 6,5 4,7 18 10 W 0,0
20.01.2020 17:00:00 6,4 4,7 15 8 W 0,0
20.01.2020 16:00:00 7,2 5,1 15 8 W 0,0
20.01.2020 15:00:00 7,7 5,5 15 8 W 0,0
20.01.2020 14:00:00 7,9 5,5 16 9 W 0,0
20.01.2020 13:00:00 8,0 6,0 16 9 W 0,0
20.01.2020 12:00:00 7,0 5,0 16 9 SSW 0,0
20.01.2020 11:00:00 7,3 5,7 18 10 WSW 0,0
20.01.2020 10:00:00 6,6 5,7 15 8 WSW 0,0
20.01.2020 09:00:00 5,2 4,5 13 7 W 0,0
20.01.2020 08:00:00 4,5 3,8 13 7 W 0,0
20.01.2020 07:00:00 5,4 4,6 16 9 W 0,2
20.01.2020 06:00:00 5,2 4,4 13 7 WSW 0,0
20.01.2020 05:00:00 4,9 4,2 15 8 W 0,0
20.01.2020 04:00:00 4,4 4,0 13 7 W 0,0
20.01.2020 03:00:00 1,8 1,2 11 6 SSW 0,0
20.01.2020 02:00:00 1,9 1,4 13 7 SSW 0,0
20.01.2020 01:00:00 2,1 1,7 15 8 SSW 0,0
20.01.2020 00:00:00 0,5 0,0 8 4 SSE 0,0
19.01.2020 23:00:00 1,0 0,4 8 4 S 0,0
19.01.2020 22:00:00 1,4 0,8 8 4 S 0,0
19.01.2020 21:00:00 1,5 0,6 5 3 SSE 0,0
19.01.2020 20:00:00 3,3 2,4 9 5 SSW 0,0
19.01.2020 19:00:00 2,8 2,0 8 4 S 0,0
19.01.2020 18:00:00 3,6 2,4 5 3 S 0,0
19.01.2020 17:00:00 4,4 3,4 11 6 S 0,0
19.01.2020 16:00:00 5,3 4,2 9 5 SSW 0,0
19.01.2020 15:00:00 5,9 4,5 11 6 SSW 0,0
19.01.2020 14:00:00 6,7 5,2 11 6 SW 0,0
19.01.2020 13:00:00 5,6 5,0 9 5 SSW 0,0
19.01.2020 12:00:00 3,3 3,0 5 3 SE 0,0
19.01.2020 11:00:00 0,2 -0,2 8 4 ESE 0,0
19.01.2020 10:00:00 -0,6 -1,0 8 4 ESE 0,0
19.01.2020 09:00:00 -2,8 -3,3 5 3 ESE 0,0
19.01.2020 08:00:00 -3,6 -4,3 5 3 ESE 0,0
19.01.2020 07:00:00 -3,7 -4,4 8 4 ESE 0,0
19.01.2020 06:00:00 -2,4 -2,9 5 3 ESE 0,0
19.01.2020 05:00:00 -1,3 -1,8 4 2 E 0,0
19.01.2020 04:00:00 -2,3 -3,0 8 4 ESE 0,0
19.01.2020 03:00:00 -1,0 -1,8 4 2 SSW 0,0

tt = Température de l'air
td = dewpoint
ff = Vitesse du vent
dd = Direction du vent
rr = Quantités de précipitations

stations d'obs. à proximité